Time;durP1;ratioP1;P1;durP2;ratioP2;P2;SDS_P1;SDS_P2;PMS_P1;PMS_P2;Temp;Humidity;BMP_temperature;BMP_pressure;BME280_temperature;BME280_humidity;BME280_pressure;Samples;Min_cycle;Max_cycle;Signal;HPM_P1;HPM_P2
2022/02/23 00:01:20;;;;;;;3.40;1.90;;;20.50;74.00;;;;;;4950261;28;95788;-40
2022/02/23 00:03:51;;;;;;;3.55;1.52;;;20.50;73.30;;;;;;4960686;28;95784;-46
2022/02/23 00:06:22;;;;;;;3.15;1.75;;;20.50;73.10;;;;;;4955130;28;95747;-46
2022/02/23 00:08:53;;;;;;;2.92;1.33;;;20.50;71.90;;;;;;4957952;28;96424;-46
2022/02/23 00:11:24;;;;;;;2.70;1.23;;;20.50;71.30;;;;;;4940916;28;95504;-46
2022/02/23 00:13:55;;;;;;;;;;;20.50;70.70;;;;;;4934553;28;96011;-46
2022/02/23 00:16:25;;;;;;;2.60;1.13;;;20.50;70.70;;;;;;4949196;28;96205;-46
2022/02/23 00:18:56;;;;;;;1.58;1.25;;;20.50;69.60;;;;;;4954642;28;96079;-46
2022/02/23 00:21:30;;;;;;;2.90;1.10;;;20.60;69.50;;;;;;4959589;28;96020;-46
2022/02/23 00:24:00;;;;;;;1.10;1.00;;;20.50;68.60;;;;;;4949825;28;95899;-47
2022/02/23 00:26:34;;;;;;;3.50;0.95;;;20.50;68.30;;;;;;4960902;28;97304;-46
2022/02/23 00:29:04;;;;;;;3.90;1.00;;;20.60;67.70;;;;;;4944952;28;96837;-45
2022/02/23 00:31:34;;;;;;;1.30;1.00;;;20.60;67.70;;;;;;4948568;28;96023;-46
2022/02/23 00:34:04;;;;;;;2.92;1.02;;;20.60;67.20;;;;;;4950182;28;95957;-46
2022/02/23 00:36:35;;;;;;;1.67;0.93;;;20.70;66.70;;;;;;4949404;28;95941;-46
2022/02/23 00:39:05;;;;;;;1.67;0.93;;;20.80;65.70;;;;;;4954504;28;96085;-46
2022/02/23 00:41:36;;;;;;;1.40;1.00;;;20.80;65.40;;;;;;4943932;28;95980;-46
2022/02/23 00:44:07;;;;;;;2.38;0.93;;;20.80;65.10;;;;;;4952820;28;95345;-48
2022/02/23 00:46:38;;;;;;;;;;;20.80;65.50;;;;;;4949025;28;95595;-48
2022/02/23 00:49:09;;;;;;;1.30;0.70;;;20.80;65.20;;;;;;4956083;28;96039;-48
2022/02/23 00:51:40;;;;;;;1.92;1.02;;;20.80;64.80;;;;;;4958179;28;99584;-48
2022/02/23 00:54:11;;;;;;;1.23;0.87;;;20.90;64.00;;;;;;4958330;28;95773;-47
2022/02/23 00:56:42;;;;;;;0.52;0.52;;;20.90;63.90;;;;;;4947870;28;96319;-47
2022/02/23 00:59:13;;;;;;;;;;;20.90;63.60;;;;;;4949261;28;96463;-46
2022/02/23 01:01:43;;;;;;;0.77;0.73;;;21.00;63.50;;;;;;4956528;28;95831;-46
2022/02/23 01:04:15;;;;;;;0.82;0.70;;;21.00;62.70;;;;;;4969405;28;95750;-46
2022/02/23 01:06:46;;;;;;;0.80;0.77;;;21.00;61.40;;;;;;4974213;28;96069;-47
2022/02/23 01:09:17;;;;;;;1.05;0.80;;;21.00;62.50;;;;;;4972981;28;96909;-46
2022/02/23 01:11:48;;;;;;;3.63;1.02;;;21.10;62.20;;;;;;4980591;28;96115;-47
2022/02/23 01:14:19;;;;;;;0.82;0.55;;;21.10;62.10;;;;;;4966716;28;96016;-46
2022/02/23 01:16:50;;;;;;;0.70;0.70;;;21.20;61.30;;;;;;4968560;28;95881;-46
2022/02/23 01:19:21;;;;;;;1.33;0.70;;;21.20;61.40;;;;;;4966242;28;96185;-47
2022/02/23 01:21:51;;;;;;;2.10;0.50;;;21.20;60.90;;;;;;4965027;28;96185;-46
2022/02/23 01:24:23;;;;;;;1.08;0.60;;;21.20;60.70;;;;;;4949739;28;96996;-46
2022/02/23 01:26:54;;;;;;;0.73;0.73;;;21.30;60.60;;;;;;4964465;28;97287;-46
2022/02/23 01:29:24;;;;;;;0.57;0.57;;;21.30;60.60;;;;;;4969630;28;96760;-47
2022/02/23 01:31:56;;;;;;;1.38;0.57;;;21.40;60.30;;;;;;4961221;28;95991;-47
2022/02/23 01:34:26;;;;;;;2.00;0.65;;;21.40;60.40;;;;;;4975774;28;95745;-47
2022/02/23 01:36:56;;;;;;;0.57;0.57;;;21.40;60.10;;;;;;4978107;28;95975;-47
2022/02/23 01:39:26;;;;;;;0.57;0.52;;;21.40;59.80;;;;;;4973732;28;96101;-49
2022/02/23 01:41:56;;;;;;;1.08;0.60;;;21.40;59.90;;;;;;4974228;28;98688;-46
2022/02/23 01:44:28;;;;;;;0.60;0.60;;;21.40;59.70;;;;;;4969019;28;95841;-47
2022/02/23 01:46:58;;;;;;;1.27;0.75;;;21.40;59.50;;;;;;4949129;28;101331;-46
2022/02/23 01:49:30;;;;;;;0.50;0.50;;;21.50;59.50;;;;;;4958530;28;96666;-47
2022/02/23 01:52:02;;;;;;;0.52;0.52;;;21.50;59.40;;;;;;4952575;28;95882;-46
2022/02/23 01:54:32;;;;;;;;;;;21.60;59.80;;;;;;4947615;28;95706;-40
2022/02/23 01:57:03;;;;;;;0.75;0.60;;;21.60;59.80;;;;;;4960824;28;97233;-40
2022/02/23 01:59:35;;;;;;;1.23;0.80;;;21.70;60.00;;;;;;4955044;28;95705;-47
2022/02/23 02:02:08;;;;;;;1.85;0.90;;;21.70;59.80;;;;;;4949651;28;96221;-46
2022/02/23 02:04:39;;;;;;;2.40;0.75;;;21.70;59.90;;;;;;4955422;28;95747;-46
2022/02/23 02:07:13;;;;;;;0.60;0.60;;;21.80;59.90;;;;;;4951092;28;96078;-46
2022/02/23 02:09:44;;;;;;;1.35;0.90;;;21.90;59.80;;;;;;4953683;28;97310;-46
2022/02/23 02:12:15;;;;;;;1.98;1.13;;;21.90;59.70;;;;;;4950063;28;96432;-47
2022/02/23 02:14:46;;;;;;;1.20;0.88;;;22.00;59.60;;;;;;4958147;28;96178;-46
2022/02/23 02:17:17;;;;;;;1.15;0.90;;;22.00;59.60;;;;;;4953662;28;96445;-46
2022/02/23 02:19:48;;;;;;;1.10;1.00;;;22.10;59.70;;;;;;4955505;28;96833;-46
2022/02/23 02:22:18;;;;;;;1.65;1.10;;;22.20;59.50;;;;;;4949799;28;95361;-46
2022/02/23 02:24:49;;;;;;;2.40;0.87;;;22.20;59.50;;;;;;4964502;28;96061;-46
2022/02/23 02:27:20;;;;;;;0.85;0.85;;;22.20;59.40;;;;;;4975697;28;95919;-46
2022/02/23 02:29:51;;;;;;;1.20;1.10;;;22.30;59.30;;;;;;4954913;28;97020;-46
2022/02/23 02:32:22;;;;;;;0.73;0.73;;;22.30;59.20;;;;;;4956531;28;98442;-46
2022/02/23 02:34:53;;;;;;;0.90;0.80;;;22.40;59.00;;;;;;4965214;28;95821;-46
2022/02/23 02:37:24;;;;;;;0.80;0.80;;;22.40;59.00;;;;;;4957116;28;96314;-46
2022/02/23 02:39:55;;;;;;;1.00;0.93;;;22.40;58.90;;;;;;4958175;28;96109;-46
2022/02/23 02:42:25;;;;;;;1.20;1.10;;;22.50;58.90;;;;;;4959369;28;95544;-46
2022/02/23 02:44:56;;;;;;;1.55;0.90;;;22.50;59.10;;;;;;4947736;28;96064;-46
2022/02/23 02:47:28;;;;;;;0.80;0.80;;;22.60;59.60;;;;;;4946750;28;95702;-47
2022/02/23 02:49:59;;;;;;;1.60;0.80;;;22.80;59.70;;;;;;4951406;28;97192;-47
2022/02/23 02:52:32;;;;;;;1.25;1.10;;;22.90;59.70;;;;;;4956146;28;96332;-46
2022/02/23 02:55:03;;;;;;;0.80;0.80;;;23.10;59.90;;;;;;4955114;28;95759;-47
2022/02/23 02:57:37;;;;;;;1.75;1.00;;;23.20;60.20;;;;;;4941486;28;97869;-48
2022/02/23 03:00:10;;;;;;;0.80;0.80;;;23.40;60.40;;;;;;4962295;28;96144;-47
2022/02/23 03:02:42;;;;;;;2.45;1.00;;;23.50;60.20;;;;;;4948626;28;96416;-46
2022/02/23 03:05:13;;;;;;;1.08;1.00;;;23.60;60.30;;;;;;4929378;28;95828;-46
2022/02/23 03:07:45;;;;;;;1.00;0.77;;;23.70;60.10;;;;;;4952212;28;95830;-46
2022/02/23 03:10:17;;;;;;;1.85;0.90;;;23.70;60.00;;;;;;4951938;28;96593;-47
2022/02/23 03:12:48;;;;;;;1.27;0.80;;;23.80;60.20;;;;;;4955233;28;96032;-47
2022/02/23 03:15:19;;;;;;;1.27;0.82;;;23.90;60.20;;;;;;4941174;28;97493;-47
2022/02/23 03:17:50;;;;;;;0.60;0.60;;;24.00;60.30;;;;;;4952399;28;95634;-46
2022/02/23 03:20:21;;;;;;;0.60;0.60;;;24.00;60.30;;;;;;4950215;28;97121;-42
2022/02/23 03:22:51;;;;;;;0.60;0.60;;;24.10;60.50;;;;;;4962025;28;95803;-42
2022/02/23 03:25:21;;;;;;;4.20;0.85;;;24.10;60.60;;;;;;4948191;28;95469;-41
2022/02/23 03:27:56;;;;;;;0.63;0.63;;;24.20;60.60;;;;;;4952211;28;95425;-40
2022/02/23 03:30:27;;;;;;;1.00;0.95;;;24.20;60.60;;;;;;4949894;28;96559;-40
2022/02/23 03:32:58;;;;;;;0.85;0.65;;;24.30;60.60;;;;;;4972109;28;102269;-40
2022/02/23 03:35:28;;;;;;;0.70;0.70;;;24.40;60.60;;;;;;4975888;28;95744;-41
2022/02/23 03:37:59;;;;;;;0.70;0.70;;;24.40;60.60;;;;;;4973080;28;95886;-40
2022/02/23 03:40:30;;;;;;;1.65;0.75;;;24.50;60.60;;;;;;4976588;28;95898;-40
2022/02/23 03:43:02;;;;;;;0.60;0.60;;;24.60;60.70;;;;;;4964225;28;97450;-40
2022/02/23 03:45:34;;;;;;;2.05;0.90;;;24.60;59.20;;;;;;4968178;28;95313;-42
2022/02/23 03:48:05;;;;;;;0.75;0.70;;;24.70;60.60;;;;;;4962711;28;97149;-41
2022/02/23 03:50:36;;;;;;;0.52;0.50;;;24.80;60.50;;;;;;4949379;28;96104;-41
2022/02/23 03:53:07;;;;;;;0.80;0.80;;;24.80;60.30;;;;;;4947554;28;96409;-42
2022/02/23 03:55:40;;;;;;;0.80;0.80;;;24.90;60.30;;;;;;4951965;28;96044;-41
2022/02/23 03:58:11;;;;;;;1.15;0.90;;;24.80;58.20;;;;;;4950647;28;95321;-41
2022/02/23 04:00:44;;;;;;;1.13;0.80;;;24.60;57.00;;;;;;4943398;28;97738;-41
2022/02/23 04:03:16;;;;;;;0.75;0.57;;;24.40;56.20;;;;;;4947710;28;96708;-46
2022/02/23 04:05:47;;;;;;;2.50;0.90;;;24.30;54.50;;;;;;4944581;28;95848;-47
2022/02/23 04:08:20;;;;;;;1.55;0.70;;;24.30;55.50;;;;;;4956684;28;96007;-47
2022/02/23 04:10:54;;;;;;;0.82;0.60;;;24.20;56.10;;;;;;4948716;28;96671;-47
2022/02/23 04:13:25;;;;;;;0.75;0.75;;;24.20;55.50;;;;;;4959543;28;96050;-47
2022/02/23 04:15:55;;;;;;;3.78;1.25;;;24.20;55.70;;;;;;4951234;28;95238;-47
2022/02/23 04:18:25;;;;;;;1.42;0.90;;;24.30;55.70;;;;;;4974199;28;96068;-47
2022/02/23 04:20:57;;;;;;;0.80;0.80;;;24.20;55.90;;;;;;4976970;28;96645;-46
2022/02/23 04:23:30;;;;;;;1.35;0.70;;;24.30;56.10;;;;;;4975952;28;95332;-47
2022/02/23 04:26:03;;;;;;;1.10;1.00;;;24.30;56.20;;;;;;4975467;28;95742;-47
2022/02/23 04:28:34;;;;;;;1.35;1.10;;;24.30;56.30;;;;;;4976421;28;95710;-46
2022/02/23 04:31:05;;;;;;;2.10;0.90;;;24.30;56.00;;;;;;4969055;28;96400;-47
2022/02/23 04:33:37;;;;;;;1.17;0.80;;;24.30;55.40;;;;;;4967988;28;95964;-45
2022/02/23 04:36:09;;;;;;;1.98;1.08;;;24.30;56.30;;;;;;4969774;28;95628;-47
2022/02/23 04:38:39;;;;;;;1.90;0.68;;;24.40;57.00;;;;;;4971704;28;95961;-41
2022/02/23 04:41:10;;;;;;;2.53;1.33;;;24.60;57.70;;;;;;4972236;28;96678;-40
2022/02/23 04:43:44;;;;;;;0.80;0.80;;;24.70;57.80;;;;;;4965345;28;98093;-39
2022/02/23 04:46:15;;;;;;;0.82;0.80;;;24.80;57.80;;;;;;4968950;28;95508;-38
2022/02/23 04:48:49;;;;;;;0.70;0.70;;;24.90;57.90;;;;;;4968235;28;95700;-39
2022/02/23 04:51:23;;;;;;;0.75;0.75;;;25.00;56.70;;;;;;4967092;28;96547;-40
2022/02/23 04:53:58;;;;;;;1.67;0.70;;;25.10;58.10;;;;;;4976881;28;95540;-39
2022/02/23 04:56:32;;;;;;;1.05;0.60;;;25.10;58.00;;;;;;4970338;28;96128;-39
2022/02/23 04:59:02;;;;;;;;;;;25.20;58.20;;;;;;4971448;28;95961;-39
2022/02/23 05:01:33;;;;;;;0.70;0.70;;;25.20;58.30;;;;;;4964788;28;95825;-47
2022/02/23 05:04:06;;;;;;;0.75;0.70;;;25.20;57.30;;;;;;4965131;28;96157;-47
2022/02/23 05:06:37;;;;;;;2.90;0.90;;;25.00;55.30;;;;;;4982514;28;95911;-47
2022/02/23 05:09:08;;;;;;;0.80;0.80;;;24.70;54.80;;;;;;4978915;28;95685;-47
2022/02/23 05:11:39;;;;;;;1.75;0.73;;;24.60;54.20;;;;;;4978702;28;97596;-47
2022/02/23 05:14:10;;;;;;;0.90;0.90;;;24.50;53.80;;;;;;4980682;28;95882;-47
2022/02/23 05:16:41;;;;;;;1.20;0.70;;;24.50;53.30;;;;;;4969456;28;95745;-47
2022/02/23 05:19:13;;;;;;;2.25;0.75;;;24.40;53.00;;;;;;4964329;28;95919;-47
2022/02/23 05:21:44;;;;;;;0.88;0.88;;;24.40;52.60;;;;;;4972125;28;96698;-46
2022/02/23 05:24:17;;;;;;;1.80;0.80;;;24.40;52.70;;;;;;4977182;28;96228;-46
2022/02/23 05:26:48;;;;;;;1.52;1.00;;;24.40;52.70;;;;;;4976616;28;95956;-42
2022/02/23 05:29:20;;;;;;;1.80;0.73;;;24.50;53.00;;;;;;4972165;28;95372;-43
2022/02/23 05:31:52;;;;;;;1.20;0.90;;;24.50;52.90;;;;;;4966496;28;97078;-41
2022/02/23 05:34:23;;;;;;;1.83;0.77;;;24.50;53.00;;;;;;4970981;28;96038;-44
2022/02/23 05:36:56;;;;;;;1.15;1.02;;;24.60;51.50;;;;;;4974063;28;95808;-42
2022/02/23 05:39:27;;;;;;;0.68;0.68;;;24.50;52.60;;;;;;4973866;28;95828;-42
2022/02/23 05:42:00;;;;;;;2.15;0.90;;;24.50;52.60;;;;;;4974302;28;97133;-43
2022/02/23 05:44:32;;;;;;;2.20;0.90;;;24.60;52.70;;;;;;4979222;28;95714;-43
2022/02/23 05:47:06;;;;;;;3.92;0.93;;;24.60;52.60;;;;;;4967406;28;96359;-41
2022/02/23 05:49:37;;;;;;;3.28;0.95;;;24.60;52.30;;;;;;4953917;28;95838;-41
2022/02/23 05:52:13;;;;;;;0.70;0.70;;;24.60;52.30;;;;;;4969563;28;96786;-42
2022/02/23 05:54:48;;;;;;;0.80;0.77;;;24.60;52.30;;;;;;4973445;28;95637;-42
2022/02/23 05:57:19;;;;;;;3.72;1.10;;;24.50;51.80;;;;;;4972297;28;95812;-42
2022/02/23 05:59:51;;;;;;;1.75;0.90;;;24.50;51.80;;;;;;4972911;28;95938;-42
2022/02/23 06:02:22;;;;;;;1.42;0.88;;;24.50;52.00;;;;;;4963053;28;97319;-43
2022/02/23 06:04:54;;;;;;;2.40;1.17;;;24.60;51.90;;;;;;4976243;28;96435;-42
2022/02/23 06:07:25;;;;;;;2.55;1.30;;;24.60;51.80;;;;;;4968723;28;95728;-48
2022/02/23 06:09:56;;;;;;;1.95;1.15;;;24.60;51.90;;;;;;4972208;28;95438;-42
2022/02/23 06:12:28;;;;;;;3.80;1.10;;;24.60;51.60;;;;;;4970072;28;96446;-41
2022/02/23 06:14:58;;;;;;;2.78;1.23;;;24.70;51.80;;;;;;4968353;28;95558;-42
2022/02/23 06:17:28;;;;;;;1.10;1.10;;;24.70;51.60;;;;;;4968276;28;96188;-44
2022/02/23 06:20:00;;;;;;;5.03;1.65;;;24.80;51.80;;;;;;4973374;28;95893;-43
2022/02/23 06:22:30;;;;;;;3.05;1.17;;;24.90;52.10;;;;;;4978054;28;96682;-41
2022/02/23 06:25:01;;;;;;;3.85;0.80;;;24.90;51.80;;;;;;4974225;28;95799;-42
2022/02/23 06:27:31;;;;;;;4.10;1.10;;;24.90;51.80;;;;;;4974136;28;96631;-44
2022/02/23 06:30:03;;;;;;;3.73;1.10;;;24.90;51.90;;;;;;4974884;28;96300;-42
2022/02/23 06:32:34;;;;;;;1.10;1.00;;;24.90;51.40;;;;;;4983085;28;96153;-42
2022/02/23 06:35:06;;;;;;;1.17;1.08;;;24.90;51.20;;;;;;4977383;28;95759;-41
2022/02/23 06:37:36;;;;;;;;;;;24.90;51.00;;;;;;4977596;28;95673;-42
2022/02/23 06:40:09;;;;;;;2.70;1.35;;;24.70;50.80;;;;;;4980419;28;95969;-41
2022/02/23 06:42:40;;;;;;;3.97;1.88;;;24.70;50.60;;;;;;4974905;28;96659;-41
2022/02/23 06:45:12;;;;;;;7.90;1.40;;;24.60;50.60;;;;;;4967518;28;95976;-42
2022/02/23 06:47:43;;;;;;;2.25;1.45;;;24.60;50.60;;;;;;4976198;28;95498;-41
2022/02/23 06:50:14;;;;;;;5.85;1.42;;;24.60;50.60;;;;;;4976411;28;98422;-41
2022/02/23 06:52:46;;;;;;;4.05;1.70;;;24.60;50.60;;;;;;4971541;28;97013;-41
2022/02/23 06:55:16;;;;;;;;;;;24.60;50.50;;;;;;4967026;28;96882;-41
2022/02/23 06:57:47;;;;;;;3.13;1.50;;;24.50;50.30;;;;;;4972636;28;95961;-41
2022/02/23 07:00:19;;;;;;;3.33;1.40;;;24.50;50.40;;;;;;4975351;28;96136;-41
2022/02/23 07:02:50;;;;;;;4.70;1.58;;;24.40;50.30;;;;;;4968096;28;96159;-41
2022/02/23 07:05:22;;;;;;;4.57;1.80;;;24.40;50.30;;;;;;4970227;28;95824;-41
2022/02/23 07:07:53;;;;;;;3.70;1.58;;;24.40;50.30;;;;;;4972757;28;95844;-42
2022/02/23 07:10:28;;;;;;;5.70;2.00;;;24.40;50.40;;;;;;4976265;28;95769;-41
2022/02/23 07:13:04;;;;;;;5.60;1.70;;;24.40;50.40;;;;;;4966205;28;96243;-41
2022/02/23 07:15:36;;;;;;;6.03;1.92;;;24.40;50.50;;;;;;4962300;28;95542;-41
2022/02/23 07:18:07;;;;;;;3.20;1.98;;;24.40;50.40;;;;;;4973386;28;95548;-41
2022/02/23 07:20:38;;;;;;;3.03;1.45;;;24.30;50.40;;;;;;4971976;28;95435;-42
2022/02/23 07:23:09;;;;;;;6.22;1.60;;;24.30;50.50;;;;;;4971027;28;96328;-41
2022/02/23 07:25:40;;;;;;;2.67;1.70;;;24.30;50.50;;;;;;4971033;28;95759;-41
2022/02/23 07:28:11;;;;;;;2.97;1.45;;;24.30;50.50;;;;;;4966864;28;97372;-41
2022/02/23 07:31:03;;;;;;;5.60;1.70;;;24.30;50.60;;;;;;4965932;28;96200;-41
2022/02/23 07:33:36;;;;;;;6.10;2.17;;;24.20;50.50;;;;;;4969106;28;96412;-42
2022/02/23 07:36:07;;;;;;;5.25;2.67;;;24.30;50.60;;;;;;4959554;28;95683;-42
2022/02/23 07:38:38;;;;;;;5.25;2.30;;;24.30;51.40;;;;;;4966184;28;95305;-41
2022/02/23 07:41:14;;;;;;;5.45;3.05;;;24.20;50.50;;;;;;4969443;28;95739;-41
2022/02/23 07:44:05;;;;;;;4.82;2.22;;;24.20;50.60;;;;;;4973830;28;96251;-42
2022/02/23 07:46:36;;;;;;;2.50;2.25;;;24.30;50.50;;;;;;4964276;28;95955;-42
2022/02/23 07:49:08;;;;;;;4.10;2.28;;;24.30;50.70;;;;;;4980479;28;97828;-42
2022/02/23 07:51:40;;;;;;;2.20;1.83;;;24.40;50.70;;;;;;4980176;28;95783;-42
2022/02/23 07:54:12;;;;;;;4.07;2.40;;;24.40;50.70;;;;;;4978757;28;96728;-42
2022/02/23 07:56:46;;;;;;;3.40;2.38;;;24.50;50.80;;;;;;4980461;28;95882;-42
2022/02/23 07:59:17;;;;;;;3.17;2.13;;;24.60;50.90;;;;;;4969931;28;95608;-42
2022/02/23 08:01:48;;;;;;;2.83;2.00;;;24.60;51.00;;;;;;4957731;28;95909;-42
2022/02/23 08:04:20;;;;;;;2.30;1.60;;;24.60;51.00;;;;;;4976627;28;97069;-42
2022/02/23 08:06:51;;;;;;;2.10;1.60;;;24.70;51.20;;;;;;4979217;28;95876;-42
2022/02/23 08:09:22;;;;;;;2.20;2.00;;;24.70;51.20;;;;;;4984309;28;96526;-42
2022/02/23 08:11:53;;;;;;;;;;;24.70;51.20;;;;;;4982307;28;95955;-42
2022/02/23 08:14:24;;;;;;;1.88;1.60;;;24.70;51.30;;;;;;4974635;28;96105;-42
2022/02/23 08:19:45;;;;;;;1.70;1.60;;;24.80;51.40;;;;;;4953270;28;95666;-42
2022/02/23 08:22:16;;;;;;;2.92;1.88;;;24.90;51.50;;;;;;4957949;28;98302;-42
2022/02/23 08:24:49;;;;;;;2.03;1.83;;;24.90;51.40;;;;;;4961448;28;96176;-42
2022/02/23 08:27:22;;;;;;;3.08;1.80;;;24.90;51.40;;;;;;4962679;28;96004;-42
2022/02/23 08:29:54;;;;;;;2.33;1.92;;;24.90;51.50;;;;;;4961397;28;96155;-42
2022/02/23 08:32:26;;;;;;;2.08;1.88;;;24.90;51.50;;;;;;4970665;28;95860;-42
2022/02/23 08:34:57;;;;;;;3.45;1.80;;;24.90;51.50;;;;;;4976776;28;97091;-42
2022/02/23 08:37:27;;;;;;;1.75;1.65;;;24.90;51.60;;;;;;4980782;28;95945;-42
2022/02/23 08:40:02;;;;;;;2.05;1.88;;;24.90;51.50;;;;;;4979624;28;95973;-43
2022/02/23 08:42:34;;;;;;;1.40;1.30;;;24.90;51.60;;;;;;4981467;28;96558;-42
2022/02/23 08:45:06;;;;;;;2.35;1.48;;;25.00;51.60;;;;;;4974880;28;96597;-43
2022/02/23 08:47:37;;;;;;;1.40;1.30;;;25.00;51.60;;;;;;4980776;28;96005;-42
2022/02/23 08:50:08;;;;;;;1.57;1.47;;;25.00;51.60;;;;;;4983683;28;95335;-42
2022/02/23 08:52:40;;;;;;;2.03;1.73;;;25.00;51.60;;;;;;4958264;28;95636;-42
2022/02/23 08:55:14;;;;;;;1.52;1.40;;;24.90;51.60;;;;;;4961525;28;98358;-42
2022/02/23 08:57:46;;;;;;;1.40;1.30;;;25.00;51.70;;;;;;4971559;28;96160;-42
2022/02/23 09:00:17;;;;;;;1.80;1.52;;;24.90;51.70;;;;;;4971992;28;95671;-43
2022/02/23 09:02:49;;;;;;;1.40;1.30;;;24.90;52.50;;;;;;4957308;28;95720;-42
2022/02/23 09:05:20;;;;;;;2.67;1.67;;;24.90;51.80;;;;;;4969933;28;96534;-42
2022/02/23 09:07:53;;;;;;;1.70;1.60;;;24.90;51.90;;;;;;4966297;28;95734;-42
2022/02/23 09:10:24;;;;;;;3.97;1.77;;;24.90;52.00;;;;;;4972698;28;95874;-42
2022/02/23 09:12:55;;;;;;;1.30;1.20;;;24.90;52.00;;;;;;4974850;28;95230;-42
2022/02/23 09:15:26;;;;;;;2.83;1.65;;;24.90;52.10;;;;;;4974324;28;96157;-42
2022/02/23 09:17:57;;;;;;;2.75;1.50;;;24.90;52.20;;;;;;4984633;28;95868;-42
2022/02/23 09:20:29;;;;;;;1.60;1.50;;;24.90;52.30;;;;;;4982815;28;96285;-42
2022/02/23 09:22:59;;;;;;;2.50;1.55;;;24.90;52.40;;;;;;4977439;28;95326;-41
2022/02/23 09:25:31;;;;;;;1.92;1.40;;;24.80;52.40;;;;;;4975109;28;96181;-42
2022/02/23 09:28:01;;;;;;;3.08;1.92;;;24.80;52.40;;;;;;4979738;28;95651;-42
2022/02/23 09:30:33;;;;;;;1.75;1.42;;;24.80;52.50;;;;;;4971692;28;97507;-42
2022/02/23 09:33:05;;;;;;;1.70;1.33;;;24.80;52.60;;;;;;4971934;28;96170;-42
2022/02/23 09:35:35;;;;;;;1.50;1.40;;;24.80;52.70;;;;;;4980163;28;96157;-42
2022/02/23 09:38:09;;;;;;;1.50;1.40;;;24.80;52.80;;;;;;4986732;28;96108;-42
2022/02/23 09:40:45;;;;;;;1.30;1.20;;;24.80;52.80;;;;;;4986109;28;95638;-49
2022/02/23 09:43:17;;;;;;;1.17;1.13;;;24.70;52.80;;;;;;4982108;28;98595;-47
2022/02/23 09:45:53;;;;;;;1.30;1.20;;;24.80;53.00;;;;;;4964307;28;96587;-47
2022/02/23 09:48:31;;;;;;;2.08;1.67;;;24.70;53.00;;;;;;4983709;28;96335;-47
2022/02/23 09:51:04;;;;;;;1.92;1.45;;;24.70;53.20;;;;;;4983939;28;95720;-47
2022/02/23 09:53:38;;;;;;;2.35;1.50;;;24.70;53.30;;;;;;4984664;28;97454;-47
2022/02/23 09:56:09;;;;;;;1.70;1.35;;;24.70;53.50;;;;;;4966183;28;96538;-47
2022/02/23 09:58:40;;;;;;;1.67;1.23;;;24.70;53.60;;;;;;4976134;28;96137;-47
2022/02/23 10:01:14;;;;;;;2.45;1.50;;;24.70;53.70;;;;;;4967706;28;95950;-47
2022/02/23 10:03:47;;;;;;;1.67;1.58;;;24.70;53.80;;;;;;4975264;28;95814;-47
2022/02/23 10:06:20;;;;;;;1.50;1.40;;;24.70;54.00;;;;;;4977305;28;96984;-47
2022/02/23 10:09:00;;;;;;;2.67;1.83;;;24.70;54.20;;;;;;4972655;28;95475;-47
2022/02/23 10:11:33;;;;;;;2.00;1.77;;;24.60;54.20;;;;;;4976505;28;95748;-47
2022/02/23 10:14:06;;;;;;;2.25;1.80;;;24.60;54.30;;;;;;4973713;28;95722;-47
2022/02/23 10:16:39;;;;;;;2.50;1.80;;;24.60;55.10;;;;;;4962764;28;96311;-47
2022/02/23 10:19:20;;;;;;;1.15;1.02;;;24.60;54.60;;;;;;4980241;28;95661;-47
2022/02/23 10:22:00;;;;;;;2.65;1.20;;;24.60;54.70;;;;;;4968111;28;95922;-47
2022/02/23 10:24:32;;;;;;;1.85;1.15;;;24.60;54.80;;;;;;4974605;28;95631;-48
2022/02/23 10:27:13;;;;;;;2.50;1.25;;;24.60;54.90;;;;;;4970892;28;96884;-47
2022/02/23 10:29:46;;;;;;;1.08;0.98;;;24.60;55.00;;;;;;4971796;28;95877;-47
2022/02/23 10:32:19;;;;;;;1.90;1.35;;;24.60;55.10;;;;;;4964947;28;95860;-47
2022/02/23 10:34:52;;;;;;;1.33;1.23;;;24.60;55.90;;;;;;4962699;28;95374;-48
2022/02/23 10:37:24;;;;;;;1.35;1.27;;;24.60;55.30;;;;;;4983119;28;98821;-47
2022/02/23 10:40:00;;;;;;;1.15;1.13;;;24.60;55.50;;;;;;4973042;28;95842;-46
2022/02/23 10:42:34;;;;;;;11.10;2.05;;;24.60;55.60;;;;;;4986224;28;95852;-36
2022/02/23 10:45:06;;;;;;;8.32;2.65;;;24.50;65.10;;;;;;4988209;28;95649;-37
2022/02/23 10:47:39;;;;;;;5.45;2.78;;;24.30;66.90;;;;;;4973936;28;96442;-36
2022/02/23 10:50:23;;;;;;;6.78;1.88;;;24.10;65.90;;;;;;4964218;28;98397;-45
2022/02/23 10:52:57;;;;;;;8.80;2.83;;;23.90;67.50;;;;;;4967434;28;97768;-45
2022/02/23 10:55:35;;;;;;;7.70;2.25;;;23.80;67.40;;;;;;4968254;28;95740;-45
2022/02/23 10:58:06;;;;;;;7.43;1.85;;;23.70;68.50;;;;;;4977050;28;96145;-45
2022/02/23 11:00:44;;;;;;;5.38;2.20;;;23.40;69.80;;;;;;4973174;28;96003;-45
2022/02/23 11:03:19;;;;;;;2.58;2.25;;;23.40;69.70;;;;;;4971724;28;95907;-45
2022/02/23 11:05:51;;;;;;;4.03;1.90;;;23.30;70.00;;;;;;4972381;28;95691;-45
2022/02/23 11:08:27;;;;;;;5.45;3.00;;;23.20;70.00;;;;;;4987118;28;96114;-45
2022/02/23 11:11:01;;;;;;;5.28;2.30;;;23.20;70.50;;;;;;4973084;28;95431;-46
2022/02/23 11:13:32;;;;;;;5.50;3.20;;;23.40;69.70;;;;;;4980591;28;98464;-44
2022/02/23 11:16:03;;;;;;;6.03;2.27;;;23.50;68.30;;;;;;4970958;28;97651;-43
2022/02/23 11:18:36;;;;;;;5.32;2.00;;;23.50;69.10;;;;;;4982026;28;96217;-44
2022/02/23 11:21:12;;;;;;;9.77;2.53;;;23.60;68.80;;;;;;4978136;28;95752;-44
2022/02/23 11:23:46;;;;;;;4.15;2.28;;;23.60;69.20;;;;;;4966444;28;95913;-43
2022/02/23 11:26:20;;;;;;;4.85;1.75;;;23.60;68.50;;;;;;4978563;28;95706;-44
2022/02/23 11:28:58;;;;;;;3.25;2.15;;;23.60;68.50;;;;;;4978350;28;96482;-44
2022/02/23 11:31:37;;;;;;;5.13;2.03;;;23.60;68.20;;;;;;4968771;28;95575;-44
2022/02/23 11:34:09;;;;;;;4.93;2.42;;;23.60;68.50;;;;;;4969865;28;95580;-44
2022/02/23 11:36:44;;;;;;;8.18;2.13;;;23.50;68.30;;;;;;4966009;28;95747;-44
2022/02/23 11:39:17;;;;;;;5.07;2.10;;;23.50;68.80;;;;;;4967904;28;96148;-44
2022/02/23 11:41:56;;;;;;;6.75;2.63;;;23.50;68.40;;;;;;4978087;28;96726;-45
2022/02/23 11:44:38;;;;;;;4.47;2.50;;;23.50;68.80;;;;;;4974687;28;95868;-45
2022/02/23 11:47:19;;;;;;;5.65;2.28;;;23.50;68.80;;;;;;4968777;28;95874;-46
2022/02/23 11:50:30;;;;;;;8.05;2.42;;;23.50;69.00;;;;;;4974044;28;96318;-47
2022/02/23 11:56:15;;;;;;;6.22;2.40;;;23.20;70.20;;;;;;4945959;28;96816;-46
2022/02/23 12:02:01;;;;;;;4.07;2.38;;;23.30;69.90;;;;;;4978517;28;96749;-46
2022/02/23 12:04:55;;;;;;;3.70;2.33;;;23.10;70.00;;;;;;4974715;28;95809;-45
2022/02/23 12:07:43;;;;;;;9.38;2.22;;;23.00;70.40;;;;;;4981398;28;95697;-46
2022/02/23 12:10:27;;;;;;;4.95;1.98;;;23.00;70.80;;;;;;4977221;28;95967;-45
2022/02/23 12:12:59;;;;;;;4.07;1.70;;;23.10;70.60;;;;;;4967049;28;96618;-47
2022/02/23 12:15:35;;;;;;;3.53;2.33;;;23.00;70.90;;;;;;4973268;28;97311;-47
2022/02/23 12:18:16;;;;;;;5.95;1.95;;;23.00;70.50;;;;;;4970118;28;96044;-47
2022/02/23 12:20:47;;;;;;;;;;;23.10;70.20;;;;;;4973300;28;95816;-47
2022/02/23 12:23:18;;;;;;;4.50;2.28;;;23.10;70.30;;;;;;4972814;28;95945;-47
2022/02/23 12:26:15;;;;;;;6.25;1.85;;;23.20;70.30;;;;;;4974645;28;95902;-47
2022/02/23 12:28:47;;;;;;;3.75;1.85;;;23.40;69.60;;;;;;4945091;28;96194;-47
2022/02/23 12:31:20;;;;;;;6.38;2.05;;;23.80;68.80;;;;;;4973171;28;96028;-47
2022/02/23 12:33:56;;;;;;;3.58;1.80;;;24.00;67.70;;;;;;4966577;28;98617;-47
2022/02/23 12:36:54;;;;;;;2.75;1.83;;;23.70;68.20;;;;;;4970303;28;95739;-47
2022/02/23 12:39:33;;;;;;;3.90;1.80;;;24.00;67.80;;;;;;4967158;28;95621;-47
2022/02/23 12:42:07;;;;;;;3.83;1.58;;;23.80;68.00;;;;;;4968802;28;95814;-47
2022/02/23 12:44:42;;;;;;;3.55;1.95;;;24.10;67.90;;;;;;4967278;28;96476;-47
2022/02/23 12:47:17;;;;;;;3.53;2.00;;;24.20;67.60;;;;;;4961936;28;96080;-47
2022/02/23 12:49:48;;;;;;;1.77;1.67;;;24.40;67.10;;;;;;4969714;28;95881;-47
2022/02/23 12:52:22;;;;;;;3.47;1.55;;;24.20;66.80;;;;;;4971292;28;96345;-47
2022/02/23 12:54:55;;;;;;;4.30;2.10;;;24.10;67.30;;;;;;4973933;28;96169;-47
2022/02/23 12:57:27;;;;;;;4.63;2.17;;;24.10;67.40;;;;;;4969136;28;96012;-47
2022/02/23 12:59:59;;;;;;;2.20;1.52;;;23.90;67.90;;;;;;4972014;28;95360;-47
2022/02/23 13:02:30;;;;;;;4.60;1.60;;;23.90;68.10;;;;;;4961714;28;95638;-47
2022/02/23 13:05:03;;;;;;;2.17;1.95;;;24.00;68.00;;;;;;4969778;28;99364;-47
2022/02/23 13:07:39;;;;;;;4.43;1.70;;;23.80;68.20;;;;;;4976866;28;96208;-46
2022/02/23 13:10:10;;;;;;;5.05;2.10;;;23.50;68.90;;;;;;4971044;28;95397;-47
2022/02/23 13:12:45;;;;;;;5.10;1.80;;;23.30;69.70;;;;;;4968221;28;95248;-47
2022/02/23 13:15:17;;;;;;;3.95;1.80;;;23.70;69.40;;;;;;4962176;28;96885;-47
2022/02/23 13:17:48;;;;;;;2.88;2.00;;;23.70;69.80;;;;;;4972237;28;96198;-48
2022/02/23 13:20:23;;;;;;;2.53;1.70;;;23.80;69.20;;;;;;4965088;28;96064;-49
2022/02/23 13:23:00;;;;;;;5.07;1.70;;;24.10;68.50;;;;;;4970591;28;95394;-48
2022/02/23 13:25:31;;;;;;;6.18;2.03;;;23.90;68.50;;;;;;4966248;28;96948;-47